sensor_id;sensor_type;location;lat;lon;timestamp;P1;durP1;ratioP1;P2;durP2;ratioP2
4089;SDS011;2059;48.538;12.146;2024-01-07T00:01:20;14.03;;;12.60;;
4089;SDS011;2059;48.538;12.146;2024-01-07T00:06:23;13.73;;;12.43;;
4089;SDS011;2059;48.538;12.146;2024-01-07T00:11:25;13.63;;;12.43;;
4089;SDS011;2059;48.538;12.146;2024-01-07T00:16:26;14.33;;;12.93;;
4089;SDS011;2059;48.538;12.146;2024-01-07T00:21:29;13.93;;;12.50;;
4089;SDS011;2059;48.538;12.146;2024-01-07T00:26:31;14.17;;;12.67;;
4089;SDS011;2059;48.538;12.146;2024-01-07T00:31:33;14.30;;;13.00;;
4089;SDS011;2059;48.538;12.146;2024-01-07T00:36:36;15.33;;;13.83;;
4089;SDS011;2059;48.538;12.146;2024-01-07T00:41:37;14.73;;;13.43;;
4089;SDS011;2059;48.538;12.146;2024-01-07T00:46:39;16.17;;;14.47;;
4089;SDS011;2059;48.538;12.146;2024-01-07T00:51:42;16.70;;;15.00;;
4089;SDS011;2059;48.538;12.146;2024-01-07T00:56:44;15.80;;;14.20;;
4089;SDS011;2059;48.538;12.146;2024-01-07T01:01:46;16.50;;;13.43;;
4089;SDS011;2059;48.538;12.146;2024-01-07T01:06:49;17.33;;;15.00;;
4089;SDS011;2059;48.538;12.146;2024-01-07T01:11:51;17.90;;;16.10;;
4089;SDS011;2059;48.538;12.146;2024-01-07T01:16:53;17.23;;;15.50;;
4089;SDS011;2059;48.538;12.146;2024-01-07T01:21:56;17.47;;;15.03;;
4089;SDS011;2059;48.538;12.146;2024-01-07T01:26:58;16.33;;;14.63;;
4089;SDS011;2059;48.538;12.146;2024-01-07T01:31:59;17.53;;;14.57;;
4089;SDS011;2059;48.538;12.146;2024-01-07T01:37:03;16.60;;;14.00;;
4089;SDS011;2059;48.538;12.146;2024-01-07T01:42:05;16.13;;;14.40;;
4089;SDS011;2059;48.538;12.146;2024-01-07T01:47:07;16.10;;;14.50;;
4089;SDS011;2059;48.538;12.146;2024-01-07T01:52:11;16.50;;;14.63;;
4089;SDS011;2059;48.538;12.146;2024-01-07T01:57:15;15.90;;;14.30;;
4089;SDS011;2059;48.538;12.146;2024-01-07T02:02:20;16.27;;;14.50;;
4089;SDS011;2059;48.538;12.146;2024-01-07T02:07:24;16.43;;;14.90;;
4089;SDS011;2059;48.538;12.146;2024-01-07T02:12:26;15.63;;;14.03;;
4089;SDS011;2059;48.538;12.146;2024-01-07T02:17:27;16.43;;;14.73;;
4089;SDS011;2059;48.538;12.146;2024-01-07T02:22:30;16.03;;;14.33;;
4089;SDS011;2059;48.538;12.146;2024-01-07T02:27:33;15.00;;;13.60;;
4089;SDS011;2059;48.538;12.146;2024-01-07T02:32:35;14.60;;;13.20;;
4089;SDS011;2059;48.538;12.146;2024-01-07T02:37:38;15.53;;;14.00;;
4089;SDS011;2059;48.538;12.146;2024-01-07T02:42:41;14.87;;;13.57;;
4089;SDS011;2059;48.538;12.146;2024-01-07T02:47:42;15.80;;;14.27;;
4089;SDS011;2059;48.538;12.146;2024-01-07T02:52:44;15.43;;;13.83;;
4089;SDS011;2059;48.538;12.146;2024-01-07T02:57:47;15.97;;;14.37;;
4089;SDS011;2059;48.538;12.146;2024-01-07T03:02:49;15.23;;;13.63;;
4089;SDS011;2059;48.538;12.146;2024-01-07T03:07:50;13.87;;;12.67;;
4089;SDS011;2059;48.538;12.146;2024-01-07T03:12:53;14.53;;;13.00;;
4089;SDS011;2059;48.538;12.146;2024-01-07T03:17:56;13.43;;;12.13;;
4089;SDS011;2059;48.538;12.146;2024-01-07T03:22:59;12.87;;;11.60;;
4089;SDS011;2059;48.538;12.146;2024-01-07T03:28:02;12.87;;;11.67;;
4089;SDS011;2059;48.538;12.146;2024-01-07T03:33:05;13.97;;;12.50;;
4089;SDS011;2059;48.538;12.146;2024-01-07T03:38:06;14.23;;;12.93;;
4089;SDS011;2059;48.538;12.146;2024-01-07T03:43:10;12.80;;;11.60;;
4089;SDS011;2059;48.538;12.146;2024-01-07T03:48:11;13.07;;;11.77;;
4089;SDS011;2059;48.538;12.146;2024-01-07T03:53:14;12.97;;;11.60;;
4089;SDS011;2059;48.538;12.146;2024-01-07T03:58:17;12.73;;;11.63;;
4089;SDS011;2059;48.538;12.146;2024-01-07T04:03:19;12.30;;;11.20;;
4089;SDS011;2059;48.538;12.146;2024-01-07T04:08:21;12.33;;;11.23;;
4089;SDS011;2059;48.538;12.146;2024-01-07T04:13:24;11.87;;;10.87;;
4089;SDS011;2059;48.538;12.146;2024-01-07T04:18:25;11.73;;;10.63;;
4089;SDS011;2059;48.538;12.146;2024-01-07T04:23:27;11.90;;;10.73;;
4089;SDS011;2059;48.538;12.146;2024-01-07T04:28:30;10.73;;;9.83;;
4089;SDS011;2059;48.538;12.146;2024-01-07T04:33:32;10.20;;;9.40;;
4089;SDS011;2059;48.538;12.146;2024-01-07T04:38:34;12.20;;;11.10;;
4089;SDS011;2059;48.538;12.146;2024-01-07T04:43:38;11.60;;;10.50;;
4089;SDS011;2059;48.538;12.146;2024-01-07T04:48:40;11.37;;;10.40;;
4089;SDS011;2059;48.538;12.146;2024-01-07T04:53:42;10.03;;;9.23;;
4089;SDS011;2059;48.538;12.146;2024-01-07T04:58:45;9.67;;;8.97;;
4089;SDS011;2059;48.538;12.146;2024-01-07T05:03:47;9.73;;;8.87;;
4089;SDS011;2059;48.538;12.146;2024-01-07T05:08:48;10.50;;;9.60;;
4089;SDS011;2059;48.538;12.146;2024-01-07T05:13:51;10.37;;;9.47;;
4089;SDS011;2059;48.538;12.146;2024-01-07T05:18:53;11.10;;;10.10;;
4089;SDS011;2059;48.538;12.146;2024-01-07T05:23:55;9.80;;;9.00;;
4089;SDS011;2059;48.538;12.146;2024-01-07T05:28:58;10.30;;;9.47;;
4089;SDS011;2059;48.538;12.146;2024-01-07T05:34:00;9.93;;;9.13;;
4089;SDS011;2059;48.538;12.146;2024-01-07T05:39:02;10.97;;;9.97;;
4089;SDS011;2059;48.538;12.146;2024-01-07T05:44:07;10.27;;;9.27;;
4089;SDS011;2059;48.538;12.146;2024-01-07T05:49:09;10.70;;;9.70;;
4089;SDS011;2059;48.538;12.146;2024-01-07T05:54:10;9.50;;;8.73;;
4089;SDS011;2059;48.538;12.146;2024-01-07T05:59:14;10.33;;;9.53;;
4089;SDS011;2059;48.538;12.146;2024-01-07T06:04:16;11.20;;;10.20;;
4089;SDS011;2059;48.538;12.146;2024-01-07T06:09:18;10.57;;;9.60;;
4089;SDS011;2059;48.538;12.146;2024-01-07T06:14:21;11.13;;;10.13;;
4089;SDS011;2059;48.538;12.146;2024-01-07T06:19:23;10.90;;;10.00;;
4089;SDS011;2059;48.538;12.146;2024-01-07T06:24:26;10.37;;;9.27;;
4089;SDS011;2059;48.538;12.146;2024-01-07T06:29:29;10.43;;;9.53;;
4089;SDS011;2059;48.538;12.146;2024-01-07T06:34:31;9.93;;;9.03;;
4089;SDS011;2059;48.538;12.146;2024-01-07T06:39:33;10.47;;;9.57;;
4089;SDS011;2059;48.538;12.146;2024-01-07T06:44:36;10.23;;;9.37;;
4089;SDS011;2059;48.538;12.146;2024-01-07T06:49:38;10.93;;;10.00;;
4089;SDS011;2059;48.538;12.146;2024-01-07T06:54:39;11.67;;;10.57;;
4089;SDS011;2059;48.538;12.146;2024-01-07T06:59:42;12.10;;;10.80;;
4089;SDS011;2059;48.538;12.146;2024-01-07T07:04:44;12.53;;;11.23;;
4089;SDS011;2059;48.538;12.146;2024-01-07T07:09:50;11.80;;;10.70;;
4089;SDS011;2059;48.538;12.146;2024-01-07T07:14:54;12.50;;;11.30;;
4089;SDS011;2059;48.538;12.146;2024-01-07T07:19:57;12.63;;;11.43;;
4089;SDS011;2059;48.538;12.146;2024-01-07T07:24:59;11.80;;;10.80;;
4089;SDS011;2059;48.538;12.146;2024-01-07T07:30:02;12.67;;;11.40;;
4089;SDS011;2059;48.538;12.146;2024-01-07T07:35:05;13.50;;;12.20;;
4089;SDS011;2059;48.538;12.146;2024-01-07T07:40:07;11.73;;;10.63;;
4089;SDS011;2059;48.538;12.146;2024-01-07T07:45:13;13.10;;;11.90;;
4089;SDS011;2059;48.538;12.146;2024-01-07T07:50:14;13.00;;;11.80;;
4089;SDS011;2059;48.538;12.146;2024-01-07T07:55:17;13.97;;;12.60;;
4089;SDS011;2059;48.538;12.146;2024-01-07T08:00:20;14.33;;;12.97;;
4089;SDS011;2059;48.538;12.146;2024-01-07T08:05:22;14.53;;;13.03;;
4089;SDS011;2059;48.538;12.146;2024-01-07T08:10:24;17.70;;;14.80;;
4089;SDS011;2059;48.538;12.146;2024-01-07T08:15:27;15.73;;;14.00;;
4089;SDS011;2059;48.538;12.146;2024-01-07T08:20:29;15.20;;;13.60;;
4089;SDS011;2059;48.538;12.146;2024-01-07T08:25:30;15.80;;;13.77;;
4089;SDS011;2059;48.538;12.146;2024-01-07T08:30:33;15.30;;;13.70;;
4089;SDS011;2059;48.538;12.146;2024-01-07T08:35:35;13.90;;;12.43;;
4089;SDS011;2059;48.538;12.146;2024-01-07T08:40:37;13.63;;;12.03;;
4089;SDS011;2059;48.538;12.146;2024-01-07T08:45:41;14.43;;;12.90;;
4089;SDS011;2059;48.538;12.146;2024-01-07T08:50:43;14.93;;;13.37;;
4089;SDS011;2059;48.538;12.146;2024-01-07T08:55:46;15.80;;;13.03;;
4089;SDS011;2059;48.538;12.146;2024-01-07T09:00:49;15.07;;;13.13;;
4089;SDS011;2059;48.538;12.146;2024-01-07T09:05:51;14.80;;;13.20;;
4089;SDS011;2059;48.538;12.146;2024-01-07T09:10:53;14.20;;;12.70;;
4089;SDS011;2059;48.538;12.146;2024-01-07T09:15:56;14.00;;;12.70;;
4089;SDS011;2059;48.538;12.146;2024-01-07T09:20:58;14.37;;;12.73;;
4089;SDS011;2059;48.538;12.146;2024-01-07T09:26:00;15.70;;;13.60;;
4089;SDS011;2059;48.538;12.146;2024-01-07T09:31:03;15.23;;;13.73;;
4089;SDS011;2059;48.538;12.146;2024-01-07T09:36:06;14.30;;;12.70;;
4089;SDS011;2059;48.538;12.146;2024-01-07T09:41:08;15.00;;;13.60;;
4089;SDS011;2059;48.538;12.146;2024-01-07T09:46:11;15.90;;;12.00;;
4089;SDS011;2059;48.538;12.146;2024-01-07T09:51:15;14.73;;;12.93;;
4089;SDS011;2059;48.538;12.146;2024-01-07T09:56:23;14.17;;;12.80;;
4089;SDS011;2059;48.538;12.146;2024-01-07T10:01:28;14.10;;;12.70;;
4089;SDS011;2059;48.538;12.146;2024-01-07T10:06:31;14.50;;;12.63;;
4089;SDS011;2059;48.538;12.146;2024-01-07T10:11:33;14.17;;;12.77;;
4089;SDS011;2059;48.538;12.146;2024-01-07T10:16:37;16.47;;;13.23;;
4089;SDS011;2059;48.538;12.146;2024-01-07T10:21:39;15.07;;;13.03;;
4089;SDS011;2059;48.538;12.146;2024-01-07T10:26:41;14.10;;;12.50;;
4089;SDS011;2059;48.538;12.146;2024-01-07T10:31:44;13.00;;;11.80;;
4089;SDS011;2059;48.538;12.146;2024-01-07T10:36:46;13.60;;;12.30;;
4089;SDS011;2059;48.538;12.146;2024-01-07T10:41:48;13.07;;;11.83;;
4089;SDS011;2059;48.538;12.146;2024-01-07T10:46:55;13.83;;;12.37;;
4089;SDS011;2059;48.538;12.146;2024-01-07T10:52:01;14.07;;;11.20;;
4089;SDS011;2059;48.538;12.146;2024-01-07T10:57:07;13.80;;;12.37;;
4089;SDS011;2059;48.538;12.146;2024-01-07T11:02:16;12.87;;;11.67;;
4089;SDS011;2059;48.538;12.146;2024-01-07T11:07:19;12.70;;;11.50;;
4089;SDS011;2059;48.538;12.146;2024-01-07T11:12:35;13.70;;;12.30;;
4089;SDS011;2059;48.538;12.146;2024-01-07T11:17:42;13.37;;;12.10;;
4089;SDS011;2059;48.538;12.146;2024-01-07T11:22:45;13.00;;;11.50;;
4089;SDS011;2059;48.538;12.146;2024-01-07T11:27:47;13.53;;;12.23;;
4089;SDS011;2059;48.538;12.146;2024-01-07T11:32:57;13.23;;;11.93;;
4089;SDS011;2059;48.538;12.146;2024-01-07T11:37:59;12.67;;;11.37;;
4089;SDS011;2059;48.538;12.146;2024-01-07T11:43:01;15.00;;;12.57;;
4089;SDS011;2059;48.538;12.146;2024-01-07T11:48:06;13.33;;;12.00;;
4089;SDS011;2059;48.538;12.146;2024-01-07T11:53:08;14.23;;;12.80;;
4089;SDS011;2059;48.538;12.146;2024-01-07T11:58:11;12.97;;;11.40;;
4089;SDS011;2059;48.538;12.146;2024-01-07T12:03:14;15.90;;;12.20;;
4089;SDS011;2059;48.538;12.146;2024-01-07T12:08:16;13.53;;;12.13;;
4089;SDS011;2059;48.538;12.146;2024-01-07T12:13:18;14.13;;;12.33;;
4089;SDS011;2059;48.538;12.146;2024-01-07T12:18:22;13.27;;;11.97;;
4089;SDS011;2059;48.538;12.146;2024-01-07T12:23:26;14.90;;;13.30;;
4089;SDS011;2059;48.538;12.146;2024-01-07T12:28:28;14.47;;;12.97;;
4089;SDS011;2059;48.538;12.146;2024-01-07T12:33:31;13.50;;;12.20;;
4089;SDS011;2059;48.538;12.146;2024-01-07T12:38:33;13.17;;;12.00;;
4089;SDS011;2059;48.538;12.146;2024-01-07T12:43:38;14.00;;;12.60;;
4089;SDS011;2059;48.538;12.146;2024-01-07T12:48:42;13.63;;;12.30;;
4089;SDS011;2059;48.538;12.146;2024-01-07T12:53:44;15.77;;;14.30;;
4089;SDS011;2059;48.538;12.146;2024-01-07T12:58:46;13.67;;;12.27;;
4089;SDS011;2059;48.538;12.146;2024-01-07T13:03:49;14.17;;;12.73;;
4089;SDS011;2059;48.538;12.146;2024-01-07T13:08:50;14.10;;;12.70;;
4089;SDS011;2059;48.538;12.146;2024-01-07T13:13:52;13.53;;;12.23;;
4089;SDS011;2059;48.538;12.146;2024-01-07T13:18:55;14.47;;;12.70;;
4089;SDS011;2059;48.538;12.146;2024-01-07T13:23:57;12.83;;;11.63;;
4089;SDS011;2059;48.538;12.146;2024-01-07T13:29:00;13.20;;;12.00;;
4089;SDS011;2059;48.538;12.146;2024-01-07T13:34:04;13.60;;;11.40;;
4089;SDS011;2059;48.538;12.146;2024-01-07T13:39:06;13.13;;;11.83;;
4089;SDS011;2059;48.538;12.146;2024-01-07T13:44:08;14.57;;;11.80;;
4089;SDS011;2059;48.538;12.146;2024-01-07T13:49:18;13.10;;;11.80;;
4089;SDS011;2059;48.538;12.146;2024-01-07T13:54:20;12.20;;;11.00;;
4089;SDS011;2059;48.538;12.146;2024-01-07T13:59:22;13.60;;;12.30;;
4089;SDS011;2059;48.538;12.146;2024-01-07T14:04:25;15.03;;;13.37;;
4089;SDS011;2059;48.538;12.146;2024-01-07T14:09:27;14.70;;;13.23;;
4089;SDS011;2059;48.538;12.146;2024-01-07T14:14:31;12.27;;;10.93;;
4089;SDS011;2059;48.538;12.146;2024-01-07T14:19:34;13.00;;;11.73;;
4089;SDS011;2059;48.538;12.146;2024-01-07T14:24:36;13.13;;;11.77;;
4089;SDS011;2059;48.538;12.146;2024-01-07T14:29:37;13.40;;;12.13;;
4089;SDS011;2059;48.538;12.146;2024-01-07T14:34:41;14.13;;;12.40;;
4089;SDS011;2059;48.538;12.146;2024-01-07T14:39:44;14.30;;;12.70;;
4089;SDS011;2059;48.538;12.146;2024-01-07T14:44:46;15.10;;;13.50;;
4089;SDS011;2059;48.538;12.146;2024-01-07T14:49:49;15.03;;;12.40;;
4089;SDS011;2059;48.538;12.146;2024-01-07T14:54:51;12.83;;;11.63;;
4089;SDS011;2059;48.538;12.146;2024-01-07T14:59:53;12.60;;;11.40;;
4089;SDS011;2059;48.538;12.146;2024-01-07T15:04:56;16.23;;;13.63;;
4089;SDS011;2059;48.538;12.146;2024-01-07T15:09:57;15.20;;;13.70;;
4089;SDS011;2059;48.538;12.146;2024-01-07T15:14:59;15.10;;;13.47;;
4089;SDS011;2059;48.538;12.146;2024-01-07T15:20:05;13.00;;;11.80;;
4089;SDS011;2059;48.538;12.146;2024-01-07T15:25:08;13.47;;;12.17;;
4089;SDS011;2059;48.538;12.146;2024-01-07T15:30:10;13.83;;;12.43;;
4089;SDS011;2059;48.538;12.146;2024-01-07T15:35:14;13.77;;;12.37;;
4089;SDS011;2059;48.538;12.146;2024-01-07T15:40:15;13.53;;;12.10;;
4089;SDS011;2059;48.538;12.146;2024-01-07T15:45:17;13.33;;;12.03;;
4089;SDS011;2059;48.538;12.146;2024-01-07T15:50:20;14.20;;;12.70;;
4089;SDS011;2059;48.538;12.146;2024-01-07T15:55:22;13.10;;;11.70;;
4089;SDS011;2059;48.538;12.146;2024-01-07T16:00:24;15.43;;;12.90;;
4089;SDS011;2059;48.538;12.146;2024-01-07T16:05:27;13.77;;;12.20;;
4089;SDS011;2059;48.538;12.146;2024-01-07T16:10:30;19.53;;;15.70;;
4089;SDS011;2059;48.538;12.146;2024-01-07T16:15:31;15.50;;;13.90;;
4089;SDS011;2059;48.538;12.146;2024-01-07T16:20:35;14.40;;;12.77;;
4089;SDS011;2059;48.538;12.146;2024-01-07T16:25:37;17.27;;;12.47;;
4089;SDS011;2059;48.538;12.146;2024-01-07T16:30:38;14.00;;;12.60;;
4089;SDS011;2059;48.538;12.146;2024-01-07T16:35:41;14.13;;;12.60;;
4089;SDS011;2059;48.538;12.146;2024-01-07T16:40:43;17.23;;;14.27;;
4089;SDS011;2059;48.538;12.146;2024-01-07T16:45:45;18.70;;;15.00;;
4089;SDS011;2059;48.538;12.146;2024-01-07T16:50:48;18.63;;;14.30;;
4089;SDS011;2059;48.538;12.146;2024-01-07T16:55:50;18.70;;;14.10;;
4089;SDS011;2059;48.538;12.146;2024-01-07T17:00:52;26.00;;;18.30;;
4089;SDS011;2059;48.538;12.146;2024-01-07T17:05:58;18.70;;;15.63;;
4089;SDS011;2059;48.538;12.146;2024-01-07T17:11:00;18.07;;;15.40;;
4089;SDS011;2059;48.538;12.146;2024-01-07T17:16:02;18.43;;;14.20;;
4089;SDS011;2059;48.538;12.146;2024-01-07T17:21:06;16.20;;;14.00;;
4089;SDS011;2059;48.538;12.146;2024-01-07T17:26:08;18.33;;;14.80;;
4089;SDS011;2059;48.538;12.146;2024-01-07T17:31:09;18.20;;;14.17;;
4089;SDS011;2059;48.538;12.146;2024-01-07T17:36:13;17.10;;;14.30;;
4089;SDS011;2059;48.538;12.146;2024-01-07T17:41:15;15.57;;;13.97;;
4089;SDS011;2059;48.538;12.146;2024-01-07T17:46:17;14.47;;;12.97;;
4089;SDS011;2059;48.538;12.146;2024-01-07T17:51:20;15.30;;;13.70;;
4089;SDS011;2059;48.538;12.146;2024-01-07T17:56:22;16.13;;;14.53;;
4089;SDS011;2059;48.538;12.146;2024-01-07T18:01:24;14.97;;;13.37;;
4089;SDS011;2059;48.538;12.146;2024-01-07T18:06:27;18.27;;;13.67;;
4089;SDS011;2059;48.538;12.146;2024-01-07T18:11:29;14.57;;;12.97;;
4089;SDS011;2059;48.538;12.146;2024-01-07T18:16:31;13.47;;;12.17;;
4089;SDS011;2059;48.538;12.146;2024-01-07T18:21:34;20.93;;;12.97;;
4089;SDS011;2059;48.538;12.146;2024-01-07T18:26:36;14.60;;;11.63;;
4089;SDS011;2059;48.538;12.146;2024-01-07T18:31:38;12.93;;;11.73;;
4089;SDS011;2059;48.538;12.146;2024-01-07T18:36:42;11.93;;;10.80;;
4089;SDS011;2059;48.538;12.146;2024-01-07T18:41:44;13.73;;;12.33;;
4089;SDS011;2059;48.538;12.146;2024-01-07T18:46:46;15.23;;;12.37;;
4089;SDS011;2059;48.538;12.146;2024-01-07T18:51:49;12.97;;;11.57;;
4089;SDS011;2059;48.538;12.146;2024-01-07T18:56:51;12.50;;;11.20;;
4089;SDS011;2059;48.538;12.146;2024-01-07T19:01:53;13.27;;;11.87;;
4089;SDS011;2059;48.538;12.146;2024-01-07T19:06:56;11.87;;;10.67;;
4089;SDS011;2059;48.538;12.146;2024-01-07T19:11:58;13.00;;;11.80;;
4089;SDS011;2059;48.538;12.146;2024-01-07T19:17:01;13.97;;;12.50;;
4089;SDS011;2059;48.538;12.146;2024-01-07T19:22:04;13.33;;;12.03;;
4089;SDS011;2059;48.538;12.146;2024-01-07T19:27:08;11.57;;;10.43;;
4089;SDS011;2059;48.538;12.146;2024-01-07T19:32:10;12.37;;;11.20;;
4089;SDS011;2059;48.538;12.146;2024-01-07T19:37:15;12.40;;;11.20;;
4089;SDS011;2059;48.538;12.146;2024-01-07T19:42:16;11.30;;;9.90;;
4089;SDS011;2059;48.538;12.146;2024-01-07T19:47:18;11.40;;;10.30;;
4089;SDS011;2059;48.538;12.146;2024-01-07T19:52:22;12.30;;;11.07;;
4089;SDS011;2059;48.538;12.146;2024-01-07T19:57:23;11.47;;;10.47;;
4089;SDS011;2059;48.538;12.146;2024-01-07T20:02:25;11.43;;;10.40;;
4089;SDS011;2059;48.538;12.146;2024-01-07T20:07:28;10.47;;;9.40;;
4089;SDS011;2059;48.538;12.146;2024-01-07T20:12:30;10.90;;;9.90;;
4089;SDS011;2059;48.538;12.146;2024-01-07T20:17:32;12.93;;;11.83;;
4089;SDS011;2059;48.538;12.146;2024-01-07T20:22:36;13.10;;;11.00;;
4089;SDS011;2059;48.538;12.146;2024-01-07T20:27:38;13.23;;;12.03;;
4089;SDS011;2059;48.538;12.146;2024-01-07T20:32:40;11.20;;;10.20;;
4089;SDS011;2059;48.538;12.146;2024-01-07T20:37:43;11.30;;;10.30;;
4089;SDS011;2059;48.538;12.146;2024-01-07T20:42:46;11.00;;;10.10;;
4089;SDS011;2059;48.538;12.146;2024-01-07T20:47:47;11.17;;;10.17;;
4089;SDS011;2059;48.538;12.146;2024-01-07T20:52:51;11.27;;;10.27;;
4089;SDS011;2059;48.538;12.146;2024-01-07T20:57:53;11.83;;;10.73;;
4089;SDS011;2059;48.538;12.146;2024-01-07T21:02:55;10.80;;;9.90;;
4089;SDS011;2059;48.538;12.146;2024-01-07T21:07:59;11.47;;;10.50;;
4089;SDS011;2059;48.538;12.146;2024-01-07T21:13:00;11.80;;;10.60;;
4089;SDS011;2059;48.538;12.146;2024-01-07T21:18:02;9.43;;;8.40;;
4089;SDS011;2059;48.538;12.146;2024-01-07T21:23:06;11.93;;;10.83;;
4089;SDS011;2059;48.538;12.146;2024-01-07T21:28:08;12.00;;;10.80;;
4089;SDS011;2059;48.538;12.146;2024-01-07T21:33:11;10.93;;;10.03;;
4089;SDS011;2059;48.538;12.146;2024-01-07T21:38:14;10.07;;;9.17;;
4089;SDS011;2059;48.538;12.146;2024-01-07T21:43:16;11.50;;;10.50;;
4089;SDS011;2059;48.538;12.146;2024-01-07T21:48:17;10.50;;;9.53;;
4089;SDS011;2059;48.538;12.146;2024-01-07T21:53:21;10.67;;;9.77;;
4089;SDS011;2059;48.538;12.146;2024-01-07T21:58:22;10.17;;;9.37;;
4089;SDS011;2059;48.538;12.146;2024-01-07T22:03:24;9.93;;;9.20;;
4089;SDS011;2059;48.538;12.146;2024-01-07T22:08:27;9.57;;;8.77;;
4089;SDS011;2059;48.538;12.146;2024-01-07T22:13:29;9.37;;;8.57;;
4089;SDS011;2059;48.538;12.146;2024-01-07T22:18:31;9.53;;;8.83;;
4089;SDS011;2059;48.538;12.146;2024-01-07T22:23:34;10.60;;;9.80;;
4089;SDS011;2059;48.538;12.146;2024-01-07T22:28:36;9.93;;;9.03;;
4089;SDS011;2059;48.538;12.146;2024-01-07T22:33:38;9.27;;;8.50;;
4089;SDS011;2059;48.538;12.146;2024-01-07T22:38:41;9.80;;;9.10;;
4089;SDS011;2059;48.538;12.146;2024-01-07T22:43:43;9.37;;;8.67;;
4089;SDS011;2059;48.538;12.146;2024-01-07T22:48:45;9.80;;;9.07;;
4089;SDS011;2059;48.538;12.146;2024-01-07T22:53:48;9.30;;;8.60;;
4089;SDS011;2059;48.538;12.146;2024-01-07T22:58:50;10.13;;;9.33;;
4089;SDS011;2059;48.538;12.146;2024-01-07T23:03:52;10.53;;;9.50;;
4089;SDS011;2059;48.538;12.146;2024-01-07T23:08:56;10.80;;;9.77;;
4089;SDS011;2059;48.538;12.146;2024-01-07T23:13:57;9.93;;;9.13;;
4089;SDS011;2059;48.538;12.146;2024-01-07T23:18:59;9.00;;;8.40;;
4089;SDS011;2059;48.538;12.146;2024-01-07T23:24:03;10.50;;;9.60;;
4089;SDS011;2059;48.538;12.146;2024-01-07T23:29:05;8.90;;;8.30;;
4089;SDS011;2059;48.538;12.146;2024-01-07T23:34:06;9.73;;;8.90;;
4089;SDS011;2059;48.538;12.146;2024-01-07T23:39:09;9.10;;;8.40;;
4089;SDS011;2059;48.538;12.146;2024-01-07T23:44:11;9.63;;;8.93;;
4089;SDS011;2059;48.538;12.146;2024-01-07T23:49:13;9.60;;;8.80;;
4089;SDS011;2059;48.538;12.146;2024-01-07T23:54:17;9.43;;;8.73;;
4089;SDS011;2059;48.538;12.146;2024-01-07T23:59:19;9.20;;;8.50;;
